createdAt,value
2023-01-15T00:00:30.607Z,58.23
2023-01-15T00:01:30.630Z,49.28
2023-01-15T00:02:30.698Z,47.71
2023-01-15T00:03:30.618Z,46.42
2023-01-15T00:04:30.575Z,51.77
2023-01-15T00:05:30.549Z,48.23
2023-01-15T00:06:30.577Z,48.58
2023-01-15T00:07:30.547Z,48.50
2023-01-15T00:08:30.563Z,58.81
2023-01-15T00:09:30.520Z,60.70
2023-01-15T00:10:30.526Z,50.10
2023-01-15T00:11:30.516Z,52.26
2023-01-15T00:12:30.509Z,50.93
2023-01-15T00:13:30.521Z,49.20
2023-01-15T00:14:30.497Z,55.72
2023-01-15T00:15:30.479Z,53.30
2023-01-15T00:16:30.445Z,49.40
2023-01-15T00:17:30.476Z,54.87
2023-01-15T00:18:30.440Z,49.25
2023-01-15T00:19:30.446Z,49.01
2023-01-15T00:20:30.429Z,49.23
2023-01-15T00:21:30.420Z,52.43
2023-01-15T00:22:30.449Z,54.93
2023-01-15T00:23:30.447Z,56.72
2023-01-15T00:24:30.425Z,53.24
2023-01-15T00:25:30.387Z,49.19
2023-01-15T00:26:30.425Z,53.05
2023-01-15T00:27:30.386Z,47.58
2023-01-15T00:28:30.382Z,49.04
2023-01-15T00:29:30.443Z,47.72
2023-01-15T00:30:30.385Z,52.06
2023-01-15T00:31:30.458Z,49.48
2023-01-15T00:32:30.399Z,49.10
2023-01-15T00:33:30.341Z,58.04
2023-01-15T00:34:30.463Z,48.50
2023-01-15T00:35:31.372Z,51.77
2023-01-15T00:36:30.355Z,54.38
2023-01-15T00:37:30.284Z,51.90
2023-01-15T00:38:30.289Z,49.66
2023-01-15T00:39:30.308Z,58.18
2023-01-15T00:40:30.307Z,49.18
2023-01-15T00:41:30.332Z,46.02
2023-01-15T00:42:30.398Z,58.88
2023-01-15T00:43:30.287Z,59.76
2023-01-15T00:44:30.286Z,52.43
2023-01-15T00:45:30.273Z,55.44
2023-01-15T00:46:30.268Z,57.09
2023-01-15T00:47:30.273Z,54.37
2023-01-15T00:48:30.225Z,54.77
2023-01-15T00:49:30.281Z,53.84
2023-01-15T00:50:30.201Z,59.11
2023-01-15T00:51:31.199Z,53.56
2023-01-15T00:52:30.178Z,55.40
2023-01-15T00:53:30.163Z,59.03
2023-01-15T00:54:30.181Z,54.37
2023-01-15T00:55:30.185Z,47.74
2023-01-15T00:56:30.150Z,52.01
2023-01-15T00:57:30.196Z,54.13
2023-01-15T00:58:30.124Z,57.82
2023-01-15T00:59:30.118Z,62.84
2023-01-15T01:00:30.219Z,52.84
2023-01-15T01:01:30.248Z,61.63
2023-01-15T01:02:30.156Z,57.24
2023-01-15T01:03:30.109Z,60.71
2023-01-15T01:04:30.102Z,50.32
2023-01-15T01:05:30.134Z,48.03
2023-01-15T01:06:30.157Z,48.26
2023-01-15T01:07:30.158Z,56.99
2023-01-15T01:08:30.122Z,54.20
2023-01-15T01:09:30.143Z,60.45
2023-01-15T01:10:30.042Z,56.18
2023-01-15T01:11:30.008Z,62.43
2023-01-15T01:12:30.067Z,55.33
2023-01-15T01:13:30.025Z,58.56
2023-01-15T01:14:30.038Z,57.99
2023-01-15T01:15:30.062Z,54.55
2023-01-15T01:16:30.120Z,64.52
2023-01-15T01:17:30.004Z,59.77
2023-01-15T01:18:30.013Z,56.93
2023-01-15T01:19:29.979Z,56.16
2023-01-15T01:20:29.975Z,62.99
2023-01-15T01:21:30.011Z,55.77
2023-01-15T01:22:29.993Z,57.22
2023-01-15T01:23:29.966Z,59.32
2023-01-15T01:24:30.032Z,55.15
2023-01-15T01:25:30.004Z,54.59
2023-01-15T01:26:29.907Z,53.20
2023-01-15T01:27:29.966Z,50.60
2023-01-15T01:28:29.944Z,54.77
2023-01-15T01:29:29.925Z,53.26
2023-01-15T01:30:29.903Z,47.42
2023-01-15T01:31:29.904Z,60.21
2023-01-15T01:33:04.485Z,54.66
2023-01-15T01:33:30.957Z,51.79
2023-01-15T01:34:29.928Z,53.91
2023-01-15T01:35:30.406Z,63.45
2023-01-15T01:36:29.834Z,55.06
2023-01-15T01:37:29.855Z,53.83
2023-01-15T01:38:29.888Z,49.64
2023-01-15T01:39:30.329Z,56.34
2023-01-15T01:40:29.870Z,57.16
2023-01-15T01:41:29.792Z,55.98
2023-01-15T01:42:29.854Z,52.25
2023-01-15T01:43:29.804Z,52.64
2023-01-15T01:44:29.824Z,61.43
2023-01-15T01:45:29.867Z,53.52
2023-01-15T01:46:29.767Z,56.53
2023-01-15T01:47:29.926Z,56.75
2023-01-15T01:48:29.758Z,54.41
2023-01-15T01:49:29.801Z,49.68
2023-01-15T01:50:29.799Z,52.65
2023-01-15T01:51:30.690Z,49.45
2023-01-15T01:52:29.720Z,47.86
2023-01-15T01:53:29.718Z,53.79
2023-01-15T01:54:29.748Z,45.91
2023-01-15T01:55:29.834Z,45.26
2023-01-15T01:56:29.676Z,45.09
2023-01-15T01:57:29.686Z,45.07
2023-01-15T01:58:29.695Z,45.39
2023-01-15T01:59:29.660Z,47.70
2023-01-15T02:00:29.804Z,45.42
2023-01-15T02:01:29.796Z,49.22
2023-01-15T02:02:29.770Z,45.09
2023-01-15T02:03:29.677Z,52.01
2023-01-15T02:04:29.629Z,48.50
2023-01-15T02:05:29.600Z,46.17
2023-01-15T02:06:29.590Z,48.13
2023-01-15T02:07:29.613Z,54.42
2023-01-15T02:09:04.265Z,49.90
2023-01-15T02:09:29.768Z,59.97
2023-01-15T02:10:29.647Z,56.74
2023-01-15T02:11:29.565Z,50.79
2023-01-15T02:12:29.569Z,49.83
2023-01-15T02:14:02.260Z,47.40
2023-01-15T02:14:29.894Z,48.08
2023-01-15T02:16:02.352Z,52.75
2023-01-15T02:16:29.901Z,50.24
2023-01-15T02:18:02.325Z,52.23
2023-01-15T02:18:29.547Z,53.73
2023-01-15T02:19:29.870Z,54.50
2023-01-15T02:20:29.506Z,51.43
2023-01-15T02:21:29.596Z,46.24
2023-01-15T02:22:29.509Z,52.55
2023-01-15T02:23:29.724Z,46.44
2023-01-15T02:24:29.495Z,55.74
2023-01-15T02:26:03.132Z,48.13
2023-01-15T02:27:01.985Z,48.07
2023-01-15T02:27:29.453Z,48.54
2023-01-15T02:29:01.872Z,47.49
2023-01-15T02:29:29.563Z,57.72
2023-01-15T02:31:01.971Z,48.03
2023-01-15T02:32:02.037Z,50.92
2023-01-15T02:32:29.398Z,48.99
2023-01-15T02:34:01.910Z,54.52
2023-01-15T02:34:29.509Z,51.12
2023-01-15T02:35:29.581Z,54.19
2023-01-15T02:36:29.404Z,52.24
2023-01-15T02:37:29.369Z,48.38
2023-01-15T02:38:29.407Z,53.49
2023-01-15T02:39:29.377Z,56.94
2023-01-15T02:40:29.420Z,47.76
2023-01-15T02:41:29.319Z,49.22
2023-01-15T02:42:30.327Z,55.24
2023-01-15T02:43:29.353Z,51.59
2023-01-15T02:45:01.277Z,54.09
2023-01-15T02:45:29.377Z,57.18
2023-01-15T02:46:29.288Z,49.20
2023-01-15T02:47:29.397Z,52.27
2023-01-15T02:48:29.256Z,46.76
2023-01-15T02:49:29.260Z,50.19
2023-01-15T02:50:29.241Z,49.96
2023-01-15T02:51:29.272Z,51.13
2023-01-15T02:52:29.211Z,51.70
2023-01-15T02:53:29.225Z,48.35
2023-01-15T02:54:29.204Z,55.31
2023-01-15T02:55:29.227Z,51.47
2023-01-15T02:56:29.187Z,46.97
2023-01-15T02:57:29.196Z,46.09
2023-01-15T02:58:29.175Z,45.40
2023-01-15T02:59:29.159Z,45.77
2023-01-15T03:00:29.164Z,47.88
2023-01-15T03:01:29.395Z,48.55
2023-01-15T03:02:29.204Z,47.26
2023-01-15T03:03:29.146Z,46.11
2023-01-15T03:04:29.142Z,49.33
2023-01-15T03:05:29.121Z,45.08
2023-01-15T03:06:29.100Z,44.87
2023-01-15T03:07:29.131Z,52.33
2023-01-15T03:08:29.162Z,45.44
2023-01-15T03:09:29.086Z,44.73
2023-01-15T03:10:29.101Z,45.89
2023-01-15T03:11:29.153Z,44.24
2023-01-15T03:12:29.047Z,44.41
2023-01-15T03:13:29.140Z,49.04
2023-01-15T03:14:29.067Z,47.95
2023-01-15T03:15:29.044Z,49.70
2023-01-15T03:16:29.072Z,52.49
2023-01-15T03:17:29.016Z,50.05
2023-01-15T03:18:29.140Z,45.79
2023-01-15T03:19:29.066Z,45.86
2023-01-15T03:20:29.000Z,48.09
2023-01-15T03:21:29.026Z,44.48
2023-01-15T03:22:28.982Z,44.32
2023-01-15T03:23:28.975Z,44.10
2023-01-15T03:24:29.019Z,45.14
2023-01-15T03:25:29.045Z,44.24
2023-01-15T03:26:28.961Z,44.32
2023-01-15T03:27:28.997Z,49.07
2023-01-15T03:28:28.947Z,51.03
2023-01-15T03:29:28.930Z,49.50
2023-01-15T03:30:29.996Z,46.81
2023-01-15T03:31:28.921Z,45.79
2023-01-15T03:32:28.924Z,44.06
2023-01-15T03:33:28.951Z,44.14
2023-01-15T03:34:28.918Z,50.41
2023-01-15T03:35:28.876Z,44.71
2023-01-15T03:36:28.901Z,49.58
2023-01-15T03:37:28.944Z,44.07
2023-01-15T03:38:28.901Z,44.34
2023-01-15T03:39:28.850Z,44.14
2023-01-15T03:40:28.860Z,44.26
2023-01-15T03:42:01.495Z,52.85
2023-01-15T03:42:28.848Z,46.89
2023-01-15T03:43:28.813Z,45.81
2023-01-15T03:44:28.834Z,47.07
2023-01-15T03:45:28.832Z,50.05
2023-01-15T03:46:28.924Z,46.02
2023-01-15T03:47:28.834Z,46.57
2023-01-15T04:04:15.938Z,47.80
2023-01-15T04:05:17.027Z,55.30
2023-01-15T04:06:17.041Z,48.39
2023-01-15T04:07:17.032Z,51.19
2023-01-15T04:08:18.053Z,54.54
2023-01-15T04:09:18.012Z,51.89
2023-01-15T04:10:17.017Z,51.67
2023-01-15T04:11:16.974Z,47.45
2023-01-15T04:12:16.996Z,46.53
2023-01-15T04:13:17.031Z,47.38
2023-01-15T04:14:17.094Z,53.72
2023-01-15T04:15:17.002Z,45.57
2023-01-15T04:16:17.048Z,46.36
2023-01-15T04:17:16.961Z,48.61
2023-01-15T04:18:16.957Z,52.09
2023-01-15T04:19:17.090Z,46.35
2023-01-15T04:20:16.923Z,45.36
2023-01-15T04:21:17.012Z,51.44
2023-01-15T04:22:16.966Z,45.64
2023-01-15T04:23:16.926Z,48.94
2023-01-15T04:24:16.953Z,52.74
2023-01-15T04:25:17.079Z,49.20
2023-01-15T04:26:16.962Z,46.09
2023-01-15T04:27:16.866Z,52.22
2023-01-15T04:28:16.912Z,52.25
2023-01-15T04:29:16.879Z,53.48
2023-01-15T04:30:16.900Z,55.25
2023-01-15T04:31:16.886Z,49.82
2023-01-15T04:32:16.829Z,43.94
2023-01-15T04:33:16.865Z,49.46
2023-01-15T04:34:16.814Z,51.29
2023-01-15T04:35:16.859Z,50.61
2023-01-15T04:36:16.898Z,55.05
2023-01-15T04:37:16.916Z,44.59
2023-01-15T04:38:16.804Z,44.91
2023-01-15T04:39:16.770Z,50.57
2023-01-15T04:40:16.772Z,44.04
2023-01-15T04:41:16.797Z,44.04
2023-01-15T04:42:16.754Z,44.47
2023-01-15T04:43:16.768Z,50.28
2023-01-15T04:44:16.746Z,50.02
2023-01-15T04:45:16.840Z,43.35
2023-01-15T04:46:16.809Z,43.43
2023-01-15T04:47:16.752Z,43.37
2023-01-15T04:48:16.789Z,43.12
2023-01-15T04:49:16.692Z,46.51
2023-01-15T04:50:16.791Z,57.69
2023-01-15T04:51:16.721Z,43.29
2023-01-15T04:52:16.681Z,47.33
2023-01-15T04:53:16.677Z,52.20
2023-01-15T04:54:16.682Z,49.09
2023-01-15T04:55:16.659Z,43.33
2023-01-15T04:56:16.625Z,43.39
2023-01-15T04:57:17.697Z,44.34
2023-01-15T04:58:16.695Z,51.79
2023-01-15T04:59:16.678Z,54.28
2023-01-15T05:00:16.720Z,50.24
2023-01-15T05:01:16.685Z,49.65
2023-01-15T05:02:16.783Z,46.50
2023-01-15T05:03:16.653Z,46.10
2023-01-15T05:04:16.657Z,48.52
2023-01-15T05:05:16.704Z,52.55
2023-01-15T05:06:16.598Z,44.20
2023-01-15T05:07:16.568Z,46.05
2023-01-15T05:08:16.613Z,48.78
2023-01-15T05:09:16.553Z,46.07
2023-01-15T05:10:16.627Z,52.07
2023-01-15T05:11:16.527Z,56.68
2023-01-15T05:12:16.639Z,45.13
2023-01-15T05:13:16.601Z,48.68
2023-01-15T05:14:16.612Z,47.86
2023-01-15T05:15:16.553Z,52.29
2023-01-15T05:16:16.633Z,44.28
2023-01-15T05:17:16.552Z,44.39
2023-01-15T05:18:16.586Z,44.57
2023-01-15T05:19:16.512Z,43.73
2023-01-15T05:20:16.543Z,43.75
2023-01-15T05:21:16.551Z,53.99
2023-01-15T05:22:17.170Z,48.42
2023-01-15T05:23:16.487Z,54.49
2023-01-15T05:24:16.579Z,48.47
2023-01-15T05:25:17.252Z,55.57
2023-01-15T05:26:16.521Z,48.96
2023-01-15T05:27:16.475Z,45.21
2023-01-15T05:28:16.495Z,46.51
2023-01-15T05:29:16.462Z,50.85
2023-01-15T05:30:16.505Z,46.10
2023-01-15T05:31:16.572Z,50.18
2023-01-15T05:32:16.505Z,46.30
2023-01-15T05:33:17.163Z,52.41
2023-01-15T05:34:16.497Z,50.25
2023-01-15T05:35:16.589Z,51.68
2023-01-15T05:36:16.518Z,48.97
2023-01-15T05:37:16.502Z,46.57
2023-01-15T05:38:16.369Z,55.01
2023-01-15T05:39:16.466Z,46.33
2023-01-15T05:40:16.379Z,53.47
2023-01-15T05:41:17.812Z,48.09
2023-01-15T05:42:16.427Z,52.55
2023-01-15T05:43:16.347Z,47.95
2023-01-15T05:44:16.549Z,52.55
2023-01-15T05:45:16.513Z,46.10
2023-01-15T05:46:17.395Z,49.66
2023-01-15T05:47:17.293Z,56.63
2023-01-15T05:48:16.461Z,58.98
2023-01-15T05:49:16.477Z,46.19
2023-01-15T05:50:17.267Z,45.80
2023-01-15T05:51:16.301Z,47.08
2023-01-15T05:52:18.976Z,52.46
2023-01-15T05:53:17.342Z,47.62
2023-01-15T05:54:16.407Z,54.96
2023-01-15T05:55:17.496Z,46.99
2023-01-15T05:56:16.347Z,53.84
2023-01-15T05:57:16.462Z,51.57
2023-01-15T05:58:16.504Z,47.05
2023-01-15T05:59:17.485Z,57.82
2023-01-15T06:00:16.198Z,51.97
2023-01-15T06:01:16.398Z,51.18
2023-01-15T06:02:16.615Z,45.42
2023-01-15T06:03:16.447Z,45.90
2023-01-15T06:04:17.977Z,53.32
2023-01-15T06:05:16.985Z,53.02
2023-01-15T06:06:16.211Z,53.12
2023-01-15T06:07:17.520Z,44.72
2023-01-15T06:08:16.272Z,44.93
2023-01-15T06:09:16.242Z,52.01
2023-01-15T06:10:16.331Z,47.17
2023-01-15T06:11:16.978Z,45.05
2023-01-15T06:12:16.324Z,51.31
2023-01-15T06:13:18.058Z,46.54
2023-01-15T06:14:16.309Z,50.19
2023-01-15T06:15:16.253Z,53.96
2023-01-15T06:16:16.895Z,52.32
2023-01-15T06:17:16.283Z,52.99
2023-01-15T06:18:16.239Z,52.50
2023-01-15T06:19:16.860Z,53.38
2023-01-15T06:20:16.682Z,51.47
2023-01-15T06:21:16.019Z,47.74
2023-01-15T06:22:16.817Z,46.77
2023-01-15T06:23:16.814Z,47.52
2023-01-15T06:24:17.371Z,51.54
2023-01-15T06:25:16.149Z,45.72
2023-01-15T06:26:16.243Z,57.51
2023-01-15T06:27:16.799Z,48.15
2023-01-15T06:28:17.170Z,47.37
2023-01-15T06:29:16.130Z,47.46
2023-01-15T06:30:16.784Z,47.83
2023-01-15T06:31:16.591Z,48.28
2023-01-15T06:32:16.826Z,50.62
2023-01-15T06:33:16.103Z,50.64
2023-01-15T06:34:16.104Z,50.76
2023-01-15T06:35:16.494Z,52.88
2023-01-15T06:36:16.885Z,57.20
2023-01-15T06:37:16.113Z,48.46
2023-01-15T06:38:16.240Z,45.05
2023-01-15T06:39:15.908Z,59.05
2023-01-15T06:40:16.043Z,45.58
2023-01-15T06:41:15.900Z,46.76
2023-01-15T06:42:15.889Z,50.75
2023-01-15T06:43:15.857Z,59.45
2023-01-15T06:44:15.852Z,45.22
2023-01-15T06:45:15.839Z,45.31
2023-01-15T06:46:15.878Z,47.21
2023-01-15T06:47:15.944Z,52.20
2023-01-15T06:48:15.812Z,54.70
2023-01-15T06:49:15.798Z,49.72
2023-01-15T06:50:15.834Z,51.71
2023-01-15T06:51:15.859Z,58.44
2023-01-15T06:52:15.789Z,57.48
2023-01-15T06:53:15.841Z,57.17
2023-01-15T06:54:15.850Z,50.53
2023-01-15T06:55:48.496Z,51.30
2023-01-15T06:56:15.991Z,44.78
2023-01-15T06:57:16.525Z,48.30
2023-01-15T06:58:15.838Z,55.87
2023-01-15T06:59:15.754Z,58.02
2023-01-15T07:00:15.769Z,58.40
2023-01-15T07:01:15.838Z,61.75
2023-01-15T07:02:15.724Z,65.35
2023-01-15T07:03:15.735Z,53.68
2023-01-15T07:04:15.740Z,48.39
2023-01-15T07:05:15.731Z,61.98
2023-01-15T07:06:15.697Z,53.21
2023-01-15T07:07:15.694Z,53.27
2023-01-15T07:08:15.651Z,53.41
2023-01-15T07:09:15.690Z,50.10
2023-01-15T07:10:15.708Z,46.30
2023-01-15T07:11:15.644Z,52.60
2023-01-15T07:12:15.670Z,57.27
2023-01-15T07:13:16.635Z,61.53
2023-01-15T07:14:15.674Z,58.98
2023-01-15T07:15:15.651Z,57.91
2023-01-15T07:16:15.700Z,53.07
2023-01-15T07:17:15.610Z,64.50
2023-01-15T07:18:15.596Z,50.09
2023-01-15T07:19:15.773Z,60.42
2023-01-15T07:20:15.636Z,53.12
2023-01-15T07:21:15.605Z,59.24
2023-01-15T07:22:15.604Z,53.81
2023-01-15T07:23:16.815Z,54.70
2023-01-15T07:24:16.608Z,54.95
2023-01-15T07:25:15.570Z,56.71
2023-01-15T07:26:15.522Z,58.64
2023-01-15T07:27:15.511Z,57.16
2023-01-15T07:28:15.515Z,57.33
2023-01-15T07:29:16.218Z,61.18
2023-01-15T07:30:15.553Z,46.36
2023-01-15T07:31:15.650Z,52.00
2023-01-15T07:32:15.502Z,54.23
2023-01-15T07:33:15.491Z,56.46
2023-01-15T07:34:16.462Z,52.18
2023-01-15T07:35:15.491Z,56.35
2023-01-15T07:36:15.522Z,53.58
2023-01-15T07:37:16.488Z,51.84
2023-01-15T07:38:15.492Z,61.50
2023-01-15T07:39:15.515Z,61.18
2023-01-15T07:40:15.463Z,55.11
2023-01-15T07:41:15.471Z,55.30
2023-01-15T07:42:15.394Z,46.96
2023-01-15T07:43:15.449Z,56.30
2023-01-15T07:44:15.386Z,55.17
2023-01-15T07:45:15.475Z,56.70
2023-01-15T07:46:15.447Z,56.13
2023-01-15T07:47:15.477Z,48.35
2023-01-15T07:48:15.390Z,58.79
2023-01-15T07:49:15.386Z,57.53
2023-01-15T07:50:15.368Z,55.91
2023-01-15T07:51:15.332Z,56.21
2023-01-15T07:52:15.412Z,51.84
2023-01-15T07:53:15.350Z,62.34
2023-01-15T07:54:15.336Z,54.08
2023-01-15T07:55:15.341Z,58.98
2023-01-15T07:56:15.344Z,55.81
2023-01-15T07:57:15.295Z,53.62
2023-01-15T07:58:15.312Z,61.09
2023-01-15T07:59:15.289Z,56.23
2023-01-15T08:00:15.293Z,60.09
2023-01-15T08:01:15.492Z,56.31
2023-01-15T08:02:15.291Z,57.17
2023-01-15T08:03:15.315Z,59.72
2023-01-15T08:04:15.346Z,57.21
2023-01-15T08:05:16.016Z,49.43
2023-01-15T08:06:15.558Z,56.84
2023-01-15T08:07:15.352Z,63.08
2023-01-15T08:08:15.449Z,60.39
2023-01-15T08:09:16.169Z,63.46
2023-01-15T08:10:15.338Z,56.70
2023-01-15T08:11:15.220Z,60.10
2023-01-15T08:12:16.261Z,59.01
2023-01-15T08:13:15.766Z,55.07
2023-01-15T08:14:15.343Z,61.46
2023-01-15T08:15:15.237Z,57.73
2023-01-15T08:16:16.283Z,52.97
2023-01-15T08:17:15.148Z,57.68
2023-01-15T08:18:15.117Z,55.25
2023-01-15T08:19:15.118Z,57.98
2023-01-15T08:20:15.144Z,63.52
2023-01-15T08:21:15.095Z,55.91
2023-01-15T08:22:15.122Z,52.24
2023-01-15T08:23:15.072Z,57.78
2023-01-15T08:24:15.162Z,60.76
2023-01-15T08:25:15.107Z,53.94
2023-01-15T08:26:15.274Z,51.00
2023-01-15T08:27:15.079Z,57.50
2023-01-15T08:28:15.054Z,46.65
2023-01-15T08:29:47.445Z,52.29
2023-01-15T08:30:15.042Z,65.22
2023-01-15T08:31:15.046Z,64.07
2023-01-15T08:32:15.056Z,56.40
2023-01-15T08:33:15.040Z,65.31
2023-01-15T08:34:15.024Z,62.80
2023-01-15T08:35:15.977Z,65.90
2023-01-15T08:36:15.007Z,59.35
2023-01-15T08:37:14.982Z,61.67
2023-01-15T08:38:15.023Z,62.27
2023-01-15T08:39:14.984Z,58.28
2023-01-15T08:40:14.951Z,62.05
2023-01-15T08:41:14.947Z,56.77
2023-01-15T08:42:14.961Z,60.41
2023-01-15T08:43:14.937Z,54.25
2023-01-15T08:44:14.970Z,67.54
2023-01-15T08:45:14.934Z,63.94
2023-01-15T08:46:46.861Z,57.87
2023-01-15T08:47:14.919Z,57.08
2023-01-15T08:48:14.887Z,64.46
2023-01-15T08:49:14.887Z,58.48
2023-01-15T08:50:14.898Z,60.01
2023-01-15T08:51:14.930Z,55.32
2023-01-15T08:52:14.851Z,59.30
2023-01-15T08:53:14.849Z,54.95
2023-01-15T08:54:14.850Z,62.33
2023-01-15T08:55:14.907Z,62.47
2023-01-15T08:56:14.831Z,67.56
2023-01-15T08:57:14.863Z,61.10
2023-01-15T08:58:14.834Z,63.02
2023-01-15T08:59:14.811Z,63.06
2023-01-15T09:00:16.187Z,55.79
2023-01-15T09:01:14.898Z,62.22
2023-01-15T09:02:14.811Z,63.58
2023-01-15T09:03:14.776Z,60.98
2023-01-15T09:04:14.762Z,63.33
2023-01-15T09:05:14.824Z,65.28
2023-01-15T09:06:14.806Z,68.64
2023-01-15T09:07:14.813Z,58.45
2023-01-15T09:08:14.754Z,57.01
2023-01-15T09:09:14.795Z,63.83
2023-01-15T09:10:14.773Z,65.06
2023-01-15T09:11:14.706Z,62.32
2023-01-15T09:12:14.723Z,60.32
2023-01-15T09:13:14.696Z,63.01
2023-01-15T09:14:59.335Z,54.92
2023-01-15T09:15:15.680Z,62.79
2023-01-15T09:16:15.664Z,64.08
2023-01-15T09:17:14.706Z,66.28
2023-01-15T09:18:14.674Z,64.05
2023-01-15T09:19:14.683Z,68.20
2023-01-15T09:20:14.712Z,62.73
2023-01-15T09:21:14.643Z,58.37
2023-01-15T09:22:14.639Z,58.35
2023-01-15T09:23:14.632Z,56.64
2023-01-15T09:24:14.664Z,64.80
2023-01-15T09:25:14.659Z,62.08
2023-01-15T09:26:14.638Z,64.34
2023-01-15T09:27:14.651Z,59.65
2023-01-15T09:28:14.638Z,60.44
2023-01-15T09:29:14.639Z,65.31
2023-01-15T09:30:14.600Z,62.44
2023-01-15T09:31:14.596Z,54.48
2023-01-15T09:32:14.588Z,63.67
2023-01-15T09:33:14.547Z,67.06
2023-01-15T09:34:46.497Z,64.42
2023-01-15T09:35:14.539Z,55.32
2023-01-15T09:36:14.520Z,66.95
2023-01-15T09:37:14.536Z,58.96
2023-01-15T09:38:14.541Z,64.17
2023-01-15T09:39:14.520Z,58.56
2023-01-15T09:40:14.527Z,53.16
2023-01-15T09:41:14.490Z,64.54
2023-01-15T09:42:14.507Z,66.58
2023-01-15T09:43:14.478Z,57.84
2023-01-15T09:44:14.508Z,63.17
2023-01-15T09:45:14.492Z,66.41
2023-01-15T09:46:14.553Z,69.17
2023-01-15T09:47:14.471Z,65.05
2023-01-15T09:48:15.770Z,60.84
2023-01-15T09:49:14.452Z,67.27
2023-01-15T09:50:14.435Z,67.48
2023-01-15T09:51:14.497Z,62.75
2023-01-15T09:52:14.424Z,65.22
2023-01-15T09:53:14.401Z,59.73
2023-01-15T09:54:14.380Z,58.35
2023-01-15T09:55:14.440Z,62.16
2023-01-15T09:56:14.388Z,62.85
2023-01-15T09:57:14.435Z,61.78
2023-01-15T09:58:14.390Z,63.36
2023-01-15T09:59:14.385Z,62.07
2023-01-15T10:00:14.377Z,63.43
2023-01-15T10:01:14.432Z,53.62
2023-01-15T10:02:14.335Z,62.14
2023-01-15T10:03:14.402Z,65.99
2023-01-15T10:04:14.392Z,59.52
2023-01-15T10:05:14.348Z,60.05
2023-01-15T10:06:14.353Z,58.98
2023-01-15T10:07:14.305Z,56.14
2023-01-15T10:08:14.295Z,57.76
2023-01-15T10:09:14.386Z,62.47
2023-01-15T10:10:15.293Z,64.33
2023-01-15T10:11:14.283Z,59.65
2023-01-15T10:12:14.262Z,56.20
2023-01-15T10:13:14.296Z,65.67
2023-01-15T10:14:14.270Z,64.03
2023-01-15T10:15:14.408Z,62.25
2023-01-15T10:16:14.312Z,62.04
2023-01-15T10:17:14.214Z,60.18
2023-01-15T10:18:14.222Z,64.11
2023-01-15T10:19:14.213Z,58.77
2023-01-15T10:20:14.228Z,55.56
2023-01-15T10:21:14.218Z,60.23
2023-01-15T10:22:14.266Z,65.66
2023-01-15T10:23:14.184Z,64.61
2023-01-15T10:24:14.154Z,62.02
2023-01-15T10:25:14.177Z,52.68
2023-01-15T10:26:14.170Z,61.99
2023-01-15T10:27:14.163Z,55.88
2023-01-15T10:28:14.158Z,49.76
2023-01-15T10:29:14.140Z,57.56
2023-01-15T10:30:14.127Z,64.39
2023-01-15T10:31:14.151Z,62.62
2023-01-15T10:32:14.118Z,64.01
2023-01-15T10:33:14.105Z,52.92
2023-01-15T10:34:14.095Z,64.15
2023-01-15T10:35:14.107Z,67.84
2023-01-15T10:36:14.086Z,62.12
2023-01-15T10:37:14.071Z,58.53
2023-01-15T10:38:14.067Z,64.64
2023-01-15T10:39:14.048Z,66.62
2023-01-15T10:40:14.075Z,56.08
2023-01-15T10:41:14.074Z,68.74
2023-01-15T10:42:14.021Z,68.93
2023-01-15T10:43:14.063Z,59.76
2023-01-15T10:44:14.013Z,63.05
2023-01-15T10:45:14.017Z,64.24
2023-01-15T10:46:14.121Z,64.49
2023-01-15T10:47:14.000Z,58.73
2023-01-15T10:48:14.023Z,62.83
2023-01-15T10:49:13.990Z,61.20
2023-01-15T10:50:14.084Z,61.66
2023-01-15T10:51:14.013Z,64.72
2023-01-15T10:52:13.990Z,55.22
2023-01-15T10:53:13.961Z,67.31
2023-01-15T10:54:13.940Z,63.52
2023-01-15T10:55:13.934Z,59.93
2023-01-15T10:56:13.996Z,68.12
2023-01-15T10:57:13.921Z,62.36
2023-01-15T10:58:13.939Z,66.97
2023-01-15T10:59:13.932Z,61.57
2023-01-15T11:00:13.888Z,65.71
2023-01-15T11:01:14.061Z,68.61
2023-01-15T11:02:14.044Z,58.79
2023-01-15T11:03:13.930Z,61.03
2023-01-15T11:04:13.902Z,64.60
2023-01-15T11:05:13.867Z,63.43
2023-01-15T11:06:13.895Z,59.20
2023-01-15T11:07:13.853Z,61.49
2023-01-15T11:08:58.324Z,67.44
2023-01-15T11:09:15.812Z,68.34
2023-01-15T11:10:13.812Z,67.83
2023-01-15T11:11:13.816Z,62.56
2023-01-15T11:12:13.844Z,54.91
2023-01-15T11:13:13.802Z,64.30
2023-01-15T11:14:13.796Z,64.96
2023-01-15T11:15:13.837Z,62.07
2023-01-15T11:16:13.797Z,63.82
2023-01-15T11:17:13.784Z,67.13
2023-01-15T11:18:13.817Z,64.52
2023-01-15T11:19:13.779Z,62.56
2023-01-15T11:20:13.750Z,60.10
2023-01-15T11:21:13.739Z,64.69
2023-01-15T11:22:13.757Z,60.62
2023-01-15T11:23:13.732Z,65.06
2023-01-15T11:24:13.738Z,66.91
2023-01-15T11:25:13.714Z,58.64
2023-01-15T11:26:13.752Z,64.97
2023-01-15T11:27:13.685Z,61.97
2023-01-15T11:28:13.707Z,60.83
2023-01-15T11:29:14.808Z,67.62
2023-01-15T11:30:13.691Z,64.88
2023-01-15T11:31:13.718Z,66.18
2023-01-15T11:32:13.643Z,63.97
2023-01-15T11:33:13.671Z,57.66
2023-01-15T11:34:13.650Z,65.15
2023-01-15T11:35:13.629Z,58.24
2023-01-15T11:36:13.707Z,59.57
2023-01-15T11:37:13.611Z,65.19
2023-01-15T11:38:13.633Z,67.77
2023-01-15T11:39:13.611Z,67.08
2023-01-15T11:40:13.624Z,64.47
2023-01-15T11:41:13.665Z,61.38
2023-01-15T11:42:13.621Z,57.73
2023-01-15T11:43:13.623Z,55.74
2023-01-15T11:44:13.597Z,67.81
2023-01-15T11:45:13.583Z,64.56
2023-01-15T11:46:13.617Z,67.06
2023-01-15T11:47:13.539Z,66.57
2023-01-15T11:48:13.511Z,65.01
2023-01-15T11:49:13.561Z,61.01
2023-01-15T11:50:13.510Z,65.07
2023-01-15T11:51:13.527Z,59.59
2023-01-15T11:52:13.554Z,66.02
2023-01-15T11:53:13.493Z,64.29
2023-01-15T11:54:13.473Z,63.31
2023-01-15T11:55:13.469Z,63.76
2023-01-15T11:56:13.479Z,68.14
2023-01-15T11:57:13.477Z,61.46
2023-01-15T11:58:13.465Z,67.39
2023-01-15T11:59:13.438Z,62.63
2023-01-15T12:00:13.457Z,67.95
2023-01-15T12:01:13.402Z,61.88
2023-01-15T12:02:13.444Z,62.39
2023-01-15T12:03:13.455Z,64.95
2023-01-15T12:04:13.452Z,66.84
2023-01-15T12:05:13.404Z,60.73
2023-01-15T12:06:14.299Z,67.85
2023-01-15T12:07:13.430Z,62.10
2023-01-15T12:08:13.363Z,62.41
2023-01-15T12:09:13.361Z,64.56
2023-01-15T12:10:13.392Z,55.69
2023-01-15T12:11:25.842Z,67.62
2023-01-15T12:12:15.355Z,66.48
2023-01-15T12:13:13.335Z,64.49
2023-01-15T12:14:13.315Z,65.90
2023-01-15T12:15:13.298Z,66.39
2023-01-15T12:16:13.341Z,64.89
2023-01-15T12:17:13.335Z,65.11
2023-01-15T12:18:13.322Z,63.72
2023-01-15T12:19:13.272Z,55.43
2023-01-15T12:20:13.309Z,60.18
2023-01-15T12:21:13.290Z,64.75
2023-01-15T12:22:13.306Z,60.01
2023-01-15T12:23:13.311Z,54.86
2023-01-15T12:24:13.270Z,61.27
2023-01-15T12:25:13.248Z,63.08
2023-01-15T12:26:13.226Z,62.53
2023-01-15T12:27:13.237Z,63.74
2023-01-15T12:28:13.235Z,61.05
2023-01-15T12:29:13.257Z,66.35
2023-01-15T12:30:13.212Z,66.48
2023-01-15T12:31:13.309Z,63.71
2023-01-15T12:32:15.783Z,69.39
2023-01-15T12:33:13.277Z,64.55
2023-01-15T12:34:13.170Z,59.96
2023-01-15T12:35:13.175Z,61.62
2023-01-15T12:36:13.207Z,60.04
2023-01-15T12:37:13.152Z,62.77
2023-01-15T12:38:13.178Z,67.04
2023-01-15T12:39:13.169Z,63.95
2023-01-15T12:40:13.211Z,66.87
2023-01-15T12:41:13.123Z,65.49
2023-01-15T12:42:13.134Z,62.35
2023-01-15T12:43:13.097Z,59.74
2023-01-15T12:44:13.119Z,65.35
2023-01-15T12:45:13.077Z,62.72
2023-01-15T12:46:13.140Z,63.05
2023-01-15T12:47:13.061Z,64.11
2023-01-15T12:48:13.064Z,59.89
2023-01-15T12:49:13.067Z,67.27
2023-01-15T12:50:13.105Z,67.76
2023-01-15T12:51:13.059Z,67.79
2023-01-15T12:52:13.051Z,62.96
2023-01-15T12:53:13.062Z,67.40
2023-01-15T12:54:13.016Z,63.23
2023-01-15T12:55:13.075Z,63.13
2023-01-15T12:56:13.004Z,62.64
2023-01-15T12:57:44.937Z,69.74
2023-01-15T12:58:13.852Z,59.71
2023-01-15T12:59:13.037Z,63.29
2023-01-15T13:00:45.020Z,68.48
2023-01-15T13:01:45.004Z,71.38
2023-01-15T13:02:13.009Z,71.60
2023-01-15T13:03:13.028Z,68.24
2023-01-15T13:04:12.949Z,68.68
2023-01-15T13:05:12.977Z,66.54
2023-01-15T13:06:12.968Z,67.48
2023-01-15T13:07:12.947Z,61.41
2023-01-15T13:08:12.951Z,62.60